sensor_id;sensor_type;location;lat;lon;timestamp;P1;durP1;ratioP1;P2;durP2;ratioP2
48203;SDS011;33994;50.998;5.864;2023-06-14T00:00:29;9.57;;;6.05;;
48203;SDS011;33994;50.998;5.864;2023-06-14T00:03:32;10.20;;;6.22;;
48203;SDS011;33994;50.998;5.864;2023-06-14T00:06:35;10.48;;;6.03;;
48203;SDS011;33994;50.998;5.864;2023-06-14T00:09:38;8.60;;;6.30;;
48203;SDS011;33994;50.998;5.864;2023-06-14T00:12:43;8.15;;;6.45;;
48203;SDS011;33994;50.998;5.864;2023-06-14T00:15:46;7.95;;;6.30;;
48203;SDS011;33994;50.998;5.864;2023-06-14T00:18:49;8.02;;;5.55;;
48203;SDS011;33994;50.998;5.864;2023-06-14T00:21:53;13.05;;;7.05;;
48203;SDS011;33994;50.998;5.864;2023-06-14T00:24:56;7.10;;;5.90;;
48203;SDS011;33994;50.998;5.864;2023-06-14T00:28:01;7.07;;;5.80;;
48203;SDS011;33994;50.998;5.864;2023-06-14T00:31:04;9.38;;;6.40;;
48203;SDS011;33994;50.998;5.864;2023-06-14T00:34:07;8.82;;;5.68;;
48203;SDS011;33994;50.998;5.864;2023-06-14T00:37:10;10.20;;;6.60;;
48203;SDS011;33994;50.998;5.864;2023-06-14T00:40:14;11.30;;;5.80;;
48203;SDS011;33994;50.998;5.864;2023-06-14T00:43:18;10.23;;;5.60;;
48203;SDS011;33994;50.998;5.864;2023-06-14T00:46:21;11.13;;;6.35;;
48203;SDS011;33994;50.998;5.864;2023-06-14T00:49:25;8.27;;;6.20;;
48203;SDS011;33994;50.998;5.864;2023-06-14T00:52:28;11.30;;;6.72;;
48203;SDS011;33994;50.998;5.864;2023-06-14T00:55:31;8.45;;;6.28;;
48203;SDS011;33994;50.998;5.864;2023-06-14T00:58:36;6.90;;;5.97;;
48203;SDS011;33994;50.998;5.864;2023-06-14T01:01:39;14.43;;;6.60;;
48203;SDS011;33994;50.998;5.864;2023-06-14T01:04:43;10.63;;;6.30;;
48203;SDS011;33994;50.998;5.864;2023-06-14T01:07:51;8.43;;;6.13;;
48203;SDS011;33994;50.998;5.864;2023-06-14T01:11:07;8.40;;;6.20;;
48203;SDS011;33994;50.998;5.864;2023-06-14T01:17:18;10.55;;;6.88;;
48203;SDS011;33994;50.998;5.864;2023-06-14T01:20:22;9.98;;;6.57;;
48203;SDS011;33994;50.998;5.864;2023-06-14T01:23:26;9.85;;;6.95;;
48203;SDS011;33994;50.998;5.864;2023-06-14T01:26:29;10.35;;;7.40;;
48203;SDS011;33994;50.998;5.864;2023-06-14T01:29:33;11.57;;;7.32;;
48203;SDS011;33994;50.998;5.864;2023-06-14T01:32:36;7.82;;;6.47;;
48203;SDS011;33994;50.998;5.864;2023-06-14T01:35:40;15.32;;;6.93;;
48203;SDS011;33994;50.998;5.864;2023-06-14T01:38:46;9.05;;;6.63;;
48203;SDS011;33994;50.998;5.864;2023-06-14T01:41:49;9.63;;;6.47;;
48203;SDS011;33994;50.998;5.864;2023-06-14T01:44:54;12.52;;;7.05;;
48203;SDS011;33994;50.998;5.864;2023-06-14T01:47:58;9.82;;;6.68;;
48203;SDS011;33994;50.998;5.864;2023-06-14T01:51:02;17.60;;;7.28;;
48203;SDS011;33994;50.998;5.864;2023-06-14T01:54:06;12.00;;;7.85;;
48203;SDS011;33994;50.998;5.864;2023-06-14T01:57:10;8.95;;;6.45;;
48203;SDS011;33994;50.998;5.864;2023-06-14T02:00:13;9.70;;;6.78;;
48203;SDS011;33994;50.998;5.864;2023-06-14T02:03:17;11.85;;;6.93;;
48203;SDS011;33994;50.998;5.864;2023-06-14T02:06:20;9.55;;;7.65;;
48203;SDS011;33994;50.998;5.864;2023-06-14T02:09:25;13.25;;;7.43;;
48203;SDS011;33994;50.998;5.864;2023-06-14T02:12:28;11.45;;;7.90;;
48203;SDS011;33994;50.998;5.864;2023-06-14T02:15:31;11.23;;;7.63;;
48203;SDS011;33994;50.998;5.864;2023-06-14T02:18:35;10.07;;;7.55;;
48203;SDS011;33994;50.998;5.864;2023-06-14T02:21:38;12.02;;;7.45;;
48203;SDS011;33994;50.998;5.864;2023-06-14T02:24:43;12.73;;;8.50;;
48203;SDS011;33994;50.998;5.864;2023-06-14T02:27:46;12.45;;;8.02;;
48203;SDS011;33994;50.998;5.864;2023-06-14T02:30:49;9.77;;;7.32;;
48203;SDS011;33994;50.998;5.864;2023-06-14T02:33:52;10.20;;;7.47;;
48203;SDS011;33994;50.998;5.864;2023-06-14T02:36:56;8.52;;;6.78;;
48203;SDS011;33994;50.998;5.864;2023-06-14T02:40:00;11.10;;;7.22;;
48203;SDS011;33994;50.998;5.864;2023-06-14T02:43:03;10.98;;;7.78;;
48203;SDS011;33994;50.998;5.864;2023-06-14T02:46:06;12.48;;;7.90;;
48203;SDS011;33994;50.998;5.864;2023-06-14T02:49:10;7.90;;;6.43;;
48203;SDS011;33994;50.998;5.864;2023-06-14T02:52:13;11.77;;;7.38;;
48203;SDS011;33994;50.998;5.864;2023-06-14T02:55:18;10.10;;;8.10;;
48203;SDS011;33994;50.998;5.864;2023-06-14T02:58:21;9.85;;;7.53;;
48203;SDS011;33994;50.998;5.864;2023-06-14T03:01:25;10.90;;;7.45;;
48203;SDS011;33994;50.998;5.864;2023-06-14T03:04:28;12.55;;;8.27;;
48203;SDS011;33994;50.998;5.864;2023-06-14T03:07:31;12.85;;;8.18;;
48203;SDS011;33994;50.998;5.864;2023-06-14T03:10:36;12.45;;;7.93;;
48203;SDS011;33994;50.998;5.864;2023-06-14T03:13:39;10.07;;;8.35;;
48203;SDS011;33994;50.998;5.864;2023-06-14T03:16:42;11.05;;;8.02;;
48203;SDS011;33994;50.998;5.864;2023-06-14T03:19:45;12.57;;;8.55;;
48203;SDS011;33994;50.998;5.864;2023-06-14T03:22:49;17.30;;;8.63;;
48203;SDS011;33994;50.998;5.864;2023-06-14T03:25:53;12.40;;;9.13;;
48203;SDS011;33994;50.998;5.864;2023-06-14T03:28:56;12.60;;;7.85;;
48203;SDS011;33994;50.998;5.864;2023-06-14T03:32:00;15.95;;;8.80;;
48203;SDS011;33994;50.998;5.864;2023-06-14T03:35:05;14.77;;;9.30;;
48203;SDS011;33994;50.998;5.864;2023-06-14T03:38:09;13.60;;;9.13;;
48203;SDS011;33994;50.998;5.864;2023-06-14T03:41:13;13.43;;;8.15;;
48203;SDS011;33994;50.998;5.864;2023-06-14T03:44:17;12.15;;;8.50;;
48203;SDS011;33994;50.998;5.864;2023-06-14T03:47:20;10.40;;;8.18;;
48203;SDS011;33994;50.998;5.864;2023-06-14T03:50:24;14.13;;;9.45;;
48203;SDS011;33994;50.998;5.864;2023-06-14T03:53:27;15.27;;;9.35;;
48203;SDS011;33994;50.998;5.864;2023-06-14T03:56:32;11.77;;;9.57;;
48203;SDS011;33994;50.998;5.864;2023-06-14T03:59:35;16.15;;;9.75;;
48203;SDS011;33994;50.998;5.864;2023-06-14T04:02:38;15.73;;;9.57;;
48203;SDS011;33994;50.998;5.864;2023-06-14T04:05:41;11.98;;;9.23;;
48203;SDS011;33994;50.998;5.864;2023-06-14T04:08:44;14.32;;;9.23;;
48203;SDS011;33994;50.998;5.864;2023-06-14T04:11:49;15.35;;;9.77;;
48203;SDS011;33994;50.998;5.864;2023-06-14T04:14:52;13.02;;;10.00;;
48203;SDS011;33994;50.998;5.864;2023-06-14T04:17:55;13.55;;;9.15;;
48203;SDS011;33994;50.998;5.864;2023-06-14T04:20:59;14.15;;;10.00;;
48203;SDS011;33994;50.998;5.864;2023-06-14T04:24:02;18.05;;;9.93;;
48203;SDS011;33994;50.998;5.864;2023-06-14T04:27:08;16.67;;;9.80;;
48203;SDS011;33994;50.998;5.864;2023-06-14T04:30:11;14.55;;;9.40;;
48203;SDS011;33994;50.998;5.864;2023-06-14T04:33:14;12.50;;;9.40;;
48203;SDS011;33994;50.998;5.864;2023-06-14T04:36:17;15.02;;;9.10;;
48203;SDS011;33994;50.998;5.864;2023-06-14T04:39:20;12.27;;;8.98;;
48203;SDS011;33994;50.998;5.864;2023-06-14T04:42:25;12.68;;;9.75;;
48203;SDS011;33994;50.998;5.864;2023-06-14T04:45:28;10.75;;;8.70;;
48203;SDS011;33994;50.998;5.864;2023-06-14T04:48:31;11.98;;;8.77;;
48203;SDS011;33994;50.998;5.864;2023-06-14T04:51:34;19.27;;;9.15;;
48203;SDS011;33994;50.998;5.864;2023-06-14T04:54:37;13.50;;;8.80;;
48203;SDS011;33994;50.998;5.864;2023-06-14T04:57:42;15.05;;;9.40;;
48203;SDS011;33994;50.998;5.864;2023-06-14T05:00:45;12.65;;;9.77;;
48203;SDS011;33994;50.998;5.864;2023-06-14T05:03:48;17.63;;;9.00;;
48203;SDS011;33994;50.998;5.864;2023-06-14T05:06:51;14.15;;;8.80;;
48203;SDS011;33994;50.998;5.864;2023-06-14T05:09:54;11.25;;;9.13;;
48203;SDS011;33994;50.998;5.864;2023-06-14T05:12:59;10.90;;;8.38;;
48203;SDS011;33994;50.998;5.864;2023-06-14T05:16:02;13.55;;;8.43;;
48203;SDS011;33994;50.998;5.864;2023-06-14T05:19:06;12.77;;;8.68;;
48203;SDS011;33994;50.998;5.864;2023-06-14T05:22:10;16.77;;;9.25;;
48203;SDS011;33994;50.998;5.864;2023-06-14T05:25:13;10.82;;;8.35;;
48203;SDS011;33994;50.998;5.864;2023-06-14T05:28:18;16.83;;;9.05;;
48203;SDS011;33994;50.998;5.864;2023-06-14T05:31:20;12.73;;;8.32;;
48203;SDS011;33994;50.998;5.864;2023-06-14T05:34:24;13.32;;;9.00;;
48203;SDS011;33994;50.998;5.864;2023-06-14T05:37:28;14.45;;;9.40;;
48203;SDS011;33994;50.998;5.864;2023-06-14T05:40:31;12.57;;;8.13;;
48203;SDS011;33994;50.998;5.864;2023-06-14T05:43:35;15.95;;;9.35;;
48203;SDS011;33994;50.998;5.864;2023-06-14T05:46:38;14.77;;;8.40;;
48203;SDS011;33994;50.998;5.864;2023-06-14T05:49:41;17.13;;;7.70;;
48203;SDS011;33994;50.998;5.864;2023-06-14T05:52:44;14.27;;;7.72;;
48203;SDS011;33994;50.998;5.864;2023-06-14T05:55:48;14.05;;;7.75;;
48203;SDS011;33994;50.998;5.864;2023-06-14T05:58:54;10.25;;;7.90;;
48203;SDS011;33994;50.998;5.864;2023-06-14T06:01:57;12.65;;;7.30;;
48203;SDS011;33994;50.998;5.864;2023-06-14T06:05:00;12.60;;;7.80;;
48203;SDS011;33994;50.998;5.864;2023-06-14T06:08:03;14.15;;;7.10;;
48203;SDS011;33994;50.998;5.864;2023-06-14T06:11:07;14.98;;;7.95;;
48203;SDS011;33994;50.998;5.864;2023-06-14T06:14:11;12.73;;;7.75;;
48203;SDS011;33994;50.998;5.864;2023-06-14T06:17:15;13.13;;;8.18;;
48203;SDS011;33994;50.998;5.864;2023-06-14T06:20:17;14.98;;;6.90;;
48203;SDS011;33994;50.998;5.864;2023-06-14T06:23:21;14.93;;;6.90;;
48203;SDS011;33994;50.998;5.864;2023-06-14T06:26:24;13.00;;;7.20;;
48203;SDS011;33994;50.998;5.864;2023-06-14T06:29:29;12.00;;;6.72;;
48203;SDS011;33994;50.998;5.864;2023-06-14T06:32:32;10.18;;;6.40;;
48203;SDS011;33994;50.998;5.864;2023-06-14T06:35:35;14.00;;;6.00;;
48203;SDS011;33994;50.998;5.864;2023-06-14T06:38:38;14.27;;;6.10;;
48203;SDS011;33994;50.998;5.864;2023-06-14T06:41:41;11.65;;;5.70;;
48203;SDS011;33994;50.998;5.864;2023-06-14T06:44:45;8.70;;;6.03;;
48203;SDS011;33994;50.998;5.864;2023-06-14T06:47:48;8.55;;;5.25;;
48203;SDS011;33994;50.998;5.864;2023-06-14T06:50:51;17.02;;;5.07;;
48203;SDS011;33994;50.998;5.864;2023-06-14T06:53:55;11.15;;;5.15;;
48203;SDS011;33994;50.998;5.864;2023-06-14T06:56:58;12.20;;;4.50;;
48203;SDS011;33994;50.998;5.864;2023-06-14T07:00:03;15.45;;;5.93;;
48203;SDS011;33994;50.998;5.864;2023-06-14T07:03:07;6.78;;;4.63;;
48203;SDS011;33994;50.998;5.864;2023-06-14T07:06:10;11.10;;;5.60;;
48203;SDS011;33994;50.998;5.864;2023-06-14T07:09:13;16.67;;;4.40;;
48203;SDS011;33994;50.998;5.864;2023-06-14T07:12:17;6.20;;;4.20;;
48203;SDS011;33994;50.998;5.864;2023-06-14T07:15:21;10.25;;;4.25;;
48203;SDS011;33994;50.998;5.864;2023-06-14T07:18:24;10.98;;;4.80;;
48203;SDS011;33994;50.998;5.864;2023-06-14T07:21:27;13.13;;;5.00;;
48203;SDS011;33994;50.998;5.864;2023-06-14T07:24:31;7.47;;;4.55;;
48203;SDS011;33994;50.998;5.864;2023-06-14T07:27:34;9.75;;;4.55;;
48203;SDS011;33994;50.998;5.864;2023-06-14T07:30:39;11.75;;;4.40;;
48203;SDS011;33994;50.998;5.864;2023-06-14T07:33:42;8.65;;;4.38;;
48203;SDS011;33994;50.998;5.864;2023-06-14T07:36:45;13.07;;;4.88;;
48203;SDS011;33994;50.998;5.864;2023-06-14T07:39:48;9.55;;;4.50;;
48203;SDS011;33994;50.998;5.864;2023-06-14T07:42:51;13.80;;;4.80;;
48203;SDS011;33994;50.998;5.864;2023-06-14T07:45:56;12.60;;;4.80;;
48203;SDS011;33994;50.998;5.864;2023-06-14T07:48:59;10.32;;;4.88;;
48203;SDS011;33994;50.998;5.864;2023-06-14T07:52:02;8.63;;;4.95;;
48203;SDS011;33994;50.998;5.864;2023-06-14T07:55:06;14.02;;;4.65;;
48203;SDS011;33994;50.998;5.864;2023-06-14T07:58:10;13.60;;;4.70;;
48203;SDS011;33994;50.998;5.864;2023-06-14T08:01:14;10.82;;;4.18;;
48203;SDS011;33994;50.998;5.864;2023-06-14T08:04:17;10.18;;;4.43;;
48203;SDS011;33994;50.998;5.864;2023-06-14T08:07:20;12.05;;;4.20;;
48203;SDS011;33994;50.998;5.864;2023-06-14T08:10:24;9.43;;;3.97;;
48203;SDS011;33994;50.998;5.864;2023-06-14T08:13:27;9.88;;;4.18;;
48203;SDS011;33994;50.998;5.864;2023-06-14T08:16:32;12.25;;;3.72;;
48203;SDS011;33994;50.998;5.864;2023-06-14T08:19:35;6.75;;;3.45;;
48203;SDS011;33994;50.998;5.864;2023-06-14T08:22:38;7.03;;;3.40;;
48203;SDS011;33994;50.998;5.864;2023-06-14T08:25:41;8.57;;;3.85;;
48203;SDS011;33994;50.998;5.864;2023-06-14T08:28:44;7.13;;;3.20;;
48203;SDS011;33994;50.998;5.864;2023-06-14T08:31:49;7.18;;;3.42;;
48203;SDS011;33994;50.998;5.864;2023-06-14T08:34:52;11.02;;;3.63;;
48203;SDS011;33994;50.998;5.864;2023-06-14T08:37:55;5.50;;;3.70;;
48203;SDS011;33994;50.998;5.864;2023-06-14T08:40:58;9.00;;;3.60;;
48203;SDS011;33994;50.998;5.864;2023-06-14T08:44:03;6.93;;;3.58;;
48203;SDS011;33994;50.998;5.864;2023-06-14T08:47:09;8.65;;;3.20;;
48203;SDS011;33994;50.998;5.864;2023-06-14T08:50:13;7.78;;;3.53;;
48203;SDS011;33994;50.998;5.864;2023-06-14T08:53:17;10.15;;;3.30;;
48203;SDS011;33994;50.998;5.864;2023-06-14T08:56:20;7.95;;;3.50;;
48203;SDS011;33994;50.998;5.864;2023-06-14T08:59:24;6.07;;;2.85;;
48203;SDS011;33994;50.998;5.864;2023-06-14T09:02:30;5.25;;;3.22;;
48203;SDS011;33994;50.998;5.864;2023-06-14T09:05:33;10.07;;;3.15;;
48203;SDS011;33994;50.998;5.864;2023-06-14T09:08:36;8.18;;;3.20;;
48203;SDS011;33994;50.998;5.864;2023-06-14T09:11:41;7.18;;;3.30;;
48203;SDS011;33994;50.998;5.864;2023-06-14T09:14:44;7.13;;;3.45;;
48203;SDS011;33994;50.998;5.864;2023-06-14T09:17:49;6.13;;;2.88;;
48203;SDS011;33994;50.998;5.864;2023-06-14T09:20:52;7.82;;;3.03;;
48203;SDS011;33994;50.998;5.864;2023-06-14T09:23:56;7.90;;;3.17;;
48203;SDS011;33994;50.998;5.864;2023-06-14T09:26:59;5.90;;;3.03;;
48203;SDS011;33994;50.998;5.864;2023-06-14T09:30:03;4.60;;;3.10;;
48203;SDS011;33994;50.998;5.864;2023-06-14T09:33:08;5.20;;;2.58;;
48203;SDS011;33994;50.998;5.864;2023-06-14T09:36:11;3.92;;;2.47;;
48203;SDS011;33994;50.998;5.864;2023-06-14T09:39:17;8.15;;;2.33;;
48203;SDS011;33994;50.998;5.864;2023-06-14T09:42:20;7.05;;;2.80;;
48203;SDS011;33994;50.998;5.864;2023-06-14T09:45:24;8.02;;;3.00;;
48203;SDS011;33994;50.998;5.864;2023-06-14T09:48:29;7.25;;;2.60;;
48203;SDS011;33994;50.998;5.864;2023-06-14T09:51:33;10.30;;;2.85;;
48203;SDS011;33994;50.998;5.864;2023-06-14T09:54:40;5.75;;;2.90;;
48203;SDS011;33994;50.998;5.864;2023-06-14T09:57:44;4.00;;;2.67;;
48203;SDS011;33994;50.998;5.864;2023-06-14T10:00:50;7.35;;;2.72;;
48203;SDS011;33994;50.998;5.864;2023-06-14T10:03:58;6.55;;;2.30;;
48203;SDS011;33994;50.998;5.864;2023-06-14T10:07:04;6.07;;;2.65;;
48203;SDS011;33994;50.998;5.864;2023-06-14T10:10:08;7.15;;;2.60;;
48203;SDS011;33994;50.998;5.864;2023-06-14T10:13:12;4.50;;;2.47;;
48203;SDS011;33994;50.998;5.864;2023-06-14T10:16:20;5.97;;;2.38;;
48203;SDS011;33994;50.998;5.864;2023-06-14T10:19:29;4.47;;;2.15;;
48203;SDS011;33994;50.998;5.864;2023-06-14T10:22:38;2.05;;;1.58;;
48203;SDS011;33994;50.998;5.864;2023-06-14T10:25:45;2.58;;;1.60;;
48203;SDS011;33994;50.998;5.864;2023-06-14T10:28:56;3.08;;;1.48;;
48203;SDS011;33994;50.998;5.864;2023-06-14T10:32:01;4.35;;;2.00;;
48203;SDS011;33994;50.998;5.864;2023-06-14T10:35:05;5.68;;;1.83;;
48203;SDS011;33994;50.998;5.864;2023-06-14T10:38:10;5.20;;;1.83;;
48203;SDS011;33994;50.998;5.864;2023-06-14T10:41:14;2.97;;;1.95;;
48203;SDS011;33994;50.998;5.864;2023-06-14T10:47:45;3.60;;;2.10;;
48203;SDS011;33994;50.998;5.864;2023-06-14T10:50:55;4.53;;;1.80;;
48203;SDS011;33994;50.998;5.864;2023-06-14T10:54:03;5.25;;;1.92;;
48203;SDS011;33994;50.998;5.864;2023-06-14T10:57:06;3.75;;;1.77;;
48203;SDS011;33994;50.998;5.864;2023-06-14T11:00:10;2.50;;;1.40;;
48203;SDS011;33994;50.998;5.864;2023-06-14T11:03:33;5.40;;;2.03;;
48203;SDS011;33994;50.998;5.864;2023-06-14T11:06:48;3.78;;;1.75;;
48203;SDS011;33994;50.998;5.864;2023-06-14T11:09:57;2.35;;;1.63;;
48203;SDS011;33994;50.998;5.864;2023-06-14T11:13:13;2.83;;;1.77;;
48203;SDS011;33994;50.998;5.864;2023-06-14T11:16:19;4.78;;;1.83;;
48203;SDS011;33994;50.998;5.864;2023-06-14T11:19:22;2.38;;;1.85;;
48203;SDS011;33994;50.998;5.864;2023-06-14T11:22:27;3.58;;;1.70;;
48203;SDS011;33994;50.998;5.864;2023-06-14T11:25:30;4.00;;;2.20;;
48203;SDS011;33994;50.998;5.864;2023-06-14T11:28:37;7.90;;;1.95;;
48203;SDS011;33994;50.998;5.864;2023-06-14T11:31:43;3.05;;;1.73;;
48203;SDS011;33994;50.998;5.864;2023-06-14T11:34:46;6.63;;;1.90;;
48203;SDS011;33994;50.998;5.864;2023-06-14T11:37:53;4.05;;;1.73;;
48203;SDS011;33994;50.998;5.864;2023-06-14T11:40:59;3.20;;;2.03;;
48203;SDS011;33994;50.998;5.864;2023-06-14T11:44:03;6.57;;;1.98;;
48203;SDS011;33994;50.998;5.864;2023-06-14T11:47:06;7.07;;;2.22;;
48203;SDS011;33994;50.998;5.864;2023-06-14T11:50:09;4.18;;;1.90;;
48203;SDS011;33994;50.998;5.864;2023-06-14T11:53:14;10.07;;;1.80;;
48203;SDS011;33994;50.998;5.864;2023-06-14T11:56:18;9.68;;;2.58;;
48203;SDS011;33994;50.998;5.864;2023-06-14T11:59:24;3.45;;;1.90;;
48203;SDS011;33994;50.998;5.864;2023-06-14T12:02:27;7.00;;;1.95;;
48203;SDS011;33994;50.998;5.864;2023-06-14T12:05:34;3.78;;;1.83;;
48203;SDS011;33994;50.998;5.864;2023-06-14T12:08:38;3.78;;;2.88;;
48203;SDS011;33994;50.998;5.864;2023-06-14T12:11:41;3.30;;;2.20;;
48203;SDS011;33994;50.998;5.864;2023-06-14T12:14:44;3.58;;;1.98;;
48203;SDS011;33994;50.998;5.864;2023-06-14T12:17:49;7.35;;;2.47;;
48203;SDS011;33994;50.998;5.864;2023-06-14T12:20:52;4.13;;;2.25;;
48203;SDS011;33994;50.998;5.864;2023-06-14T12:23:57;7.70;;;2.17;;
48203;SDS011;33994;50.998;5.864;2023-06-14T12:27:00;6.03;;;2.47;;
48203;SDS011;33994;50.998;5.864;2023-06-14T12:30:03;6.40;;;2.47;;
48203;SDS011;33994;50.998;5.864;2023-06-14T12:33:07;3.83;;;2.30;;
48203;SDS011;33994;50.998;5.864;2023-06-14T12:36:11;4.22;;;2.15;;
48203;SDS011;33994;50.998;5.864;2023-06-14T12:39:15;4.57;;;2.33;;
48203;SDS011;33994;50.998;5.864;2023-06-14T12:42:18;8.65;;;2.40;;
48203;SDS011;33994;50.998;5.864;2023-06-14T12:45:21;5.15;;;2.05;;
48203;SDS011;33994;50.998;5.864;2023-06-14T12:48:25;5.75;;;2.28;;
48203;SDS011;33994;50.998;5.864;2023-06-14T12:51:29;8.80;;;2.22;;
48203;SDS011;33994;50.998;5.864;2023-06-14T12:54:33;3.25;;;1.92;;
48203;SDS011;33994;50.998;5.864;2023-06-14T12:57:36;5.72;;;1.90;;
48203;SDS011;33994;50.998;5.864;2023-06-14T13:00:39;4.75;;;2.53;;
48203;SDS011;33994;50.998;5.864;2023-06-14T13:03:42;7.88;;;2.72;;
48203;SDS011;33994;50.998;5.864;2023-06-14T13:06:46;4.55;;;2.00;;
48203;SDS011;33994;50.998;5.864;2023-06-14T13:09:50;4.70;;;1.77;;
48203;SDS011;33994;50.998;5.864;2023-06-14T13:12:53;3.30;;;2.00;;
48203;SDS011;33994;50.998;5.864;2023-06-14T13:15:57;3.28;;;1.60;;
48203;SDS011;33994;50.998;5.864;2023-06-14T13:19:00;7.72;;;1.70;;
48203;SDS011;33994;50.998;5.864;2023-06-14T13:22:03;2.45;;;1.50;;
48203;SDS011;33994;50.998;5.864;2023-06-14T13:25:08;6.75;;;1.90;;
48203;SDS011;33994;50.998;5.864;2023-06-14T13:28:11;4.05;;;1.95;;
48203;SDS011;33994;50.998;5.864;2023-06-14T13:31:15;2.47;;;1.50;;
48203;SDS011;33994;50.998;5.864;2023-06-14T13:34:18;2.78;;;1.50;;
48203;SDS011;33994;50.998;5.864;2023-06-14T13:37:21;3.22;;;1.50;;
48203;SDS011;33994;50.998;5.864;2023-06-14T13:40:26;3.42;;;1.52;;
48203;SDS011;33994;50.998;5.864;2023-06-14T13:43:29;6.03;;;1.50;;
48203;SDS011;33994;50.998;5.864;2023-06-14T13:46:32;8.55;;;1.90;;
48203;SDS011;33994;50.998;5.864;2023-06-14T13:49:35;3.63;;;1.42;;
48203;SDS011;33994;50.998;5.864;2023-06-14T13:52:39;11.10;;;1.73;;
48203;SDS011;33994;50.998;5.864;2023-06-14T13:55:43;2.40;;;1.70;;
48203;SDS011;33994;50.998;5.864;2023-06-14T13:58:46;4.32;;;2.17;;
48203;SDS011;33994;50.998;5.864;2023-06-14T14:01:50;3.50;;;1.75;;
48203;SDS011;33994;50.998;5.864;2023-06-14T14:04:53;3.95;;;1.70;;
48203;SDS011;33994;50.998;5.864;2023-06-14T14:07:56;4.78;;;1.40;;
48203;SDS011;33994;50.998;5.864;2023-06-14T14:11:01;8.50;;;1.67;;
48203;SDS011;33994;50.998;5.864;2023-06-14T14:14:04;2.25;;;1.75;;
48203;SDS011;33994;50.998;5.864;2023-06-14T14:17:07;2.80;;;1.80;;
48203;SDS011;33994;50.998;5.864;2023-06-14T14:20:11;6.68;;;1.92;;
48203;SDS011;33994;50.998;5.864;2023-06-14T14:23:14;2.75;;;2.00;;
48203;SDS011;33994;50.998;5.864;2023-06-14T14:26:18;5.25;;;2.00;;
48203;SDS011;33994;50.998;5.864;2023-06-14T14:29:21;6.13;;;1.75;;
48203;SDS011;33994;50.998;5.864;2023-06-14T14:32:24;6.45;;;2.22;;
48203;SDS011;33994;50.998;5.864;2023-06-14T14:35:28;5.65;;;2.20;;
48203;SDS011;33994;50.998;5.864;2023-06-14T14:38:31;5.13;;;2.25;;
48203;SDS011;33994;50.998;5.864;2023-06-14T14:41:36;4.88;;;2.08;;
48203;SDS011;33994;50.998;5.864;2023-06-14T14:44:39;5.53;;;2.38;;
48203;SDS011;33994;50.998;5.864;2023-06-14T14:47:42;4.20;;;2.33;;
48203;SDS011;33994;50.998;5.864;2023-06-14T14:50:45;5.18;;;2.08;;
48203;SDS011;33994;50.998;5.864;2023-06-14T14:53:48;3.85;;;2.38;;
48203;SDS011;33994;50.998;5.864;2023-06-14T14:56:53;4.57;;;2.40;;
48203;SDS011;33994;50.998;5.864;2023-06-14T14:59:56;4.38;;;1.73;;
48203;SDS011;33994;50.998;5.864;2023-06-14T15:02:59;5.53;;;2.13;;
48203;SDS011;33994;50.998;5.864;2023-06-14T15:06:02;3.70;;;1.88;;
48203;SDS011;33994;50.998;5.864;2023-06-14T15:09:05;6.22;;;1.88;;
48203;SDS011;33994;50.998;5.864;2023-06-14T15:12:10;3.67;;;2.40;;
48203;SDS011;33994;50.998;5.864;2023-06-14T15:15:13;6.70;;;1.92;;
48203;SDS011;33994;50.998;5.864;2023-06-14T15:18:16;10.02;;;3.25;;
48203;SDS011;33994;50.998;5.864;2023-06-14T15:21:20;3.85;;;1.95;;
48203;SDS011;33994;50.998;5.864;2023-06-14T15:24:23;5.72;;;1.83;;
48203;SDS011;33994;50.998;5.864;2023-06-14T15:27:28;3.05;;;1.92;;
48203;SDS011;33994;50.998;5.864;2023-06-14T15:30:31;4.57;;;1.85;;
48203;SDS011;33994;50.998;5.864;2023-06-14T15:33:34;2.47;;;1.90;;
48203;SDS011;33994;50.998;5.864;2023-06-14T15:36:38;3.35;;;2.10;;
48203;SDS011;33994;50.998;5.864;2023-06-14T15:39:41;3.88;;;2.00;;
48203;SDS011;33994;50.998;5.864;2023-06-14T15:42:45;2.85;;;1.52;;
48203;SDS011;33994;50.998;5.864;2023-06-14T15:45:48;3.15;;;1.60;;
48203;SDS011;33994;50.998;5.864;2023-06-14T15:48:52;4.55;;;1.70;;
48203;SDS011;33994;50.998;5.864;2023-06-14T15:51:55;5.25;;;1.88;;
48203;SDS011;33994;50.998;5.864;2023-06-14T15:54:58;5.40;;;2.08;;
48203;SDS011;33994;50.998;5.864;2023-06-14T15:58:03;3.22;;;1.73;;
48203;SDS011;33994;50.998;5.864;2023-06-14T16:01:06;2.20;;;1.70;;
48203;SDS011;33994;50.998;5.864;2023-06-14T16:04:09;5.43;;;1.73;;
48203;SDS011;33994;50.998;5.864;2023-06-14T16:07:13;4.05;;;1.70;;
48203;SDS011;33994;50.998;5.864;2023-06-14T16:10:16;5.40;;;1.42;;
48203;SDS011;33994;50.998;5.864;2023-06-14T16:13:21;7.13;;;2.05;;
48203;SDS011;33994;50.998;5.864;2023-06-14T16:16:24;6.13;;;1.73;;
48203;SDS011;33994;50.998;5.864;2023-06-14T16:19:27;4.60;;;1.60;;
48203;SDS011;33994;50.998;5.864;2023-06-14T16:22:30;6.22;;;1.60;;
48203;SDS011;33994;50.998;5.864;2023-06-14T16:25:33;6.97;;;1.65;;
48203;SDS011;33994;50.998;5.864;2023-06-14T16:28:38;4.20;;;1.70;;
48203;SDS011;33994;50.998;5.864;2023-06-14T16:31:42;3.83;;;1.73;;
48203;SDS011;33994;50.998;5.864;2023-06-14T16:34:45;5.25;;;2.00;;
48203;SDS011;33994;50.998;5.864;2023-06-14T16:37:48;3.90;;;1.77;;
48203;SDS011;33994;50.998;5.864;2023-06-14T16:40:51;3.50;;;1.85;;
48203;SDS011;33994;50.998;5.864;2023-06-14T16:43:56;4.05;;;1.55;;
48203;SDS011;33994;50.998;5.864;2023-06-14T16:46:59;3.55;;;1.48;;
48203;SDS011;33994;50.998;5.864;2023-06-14T16:50:02;4.70;;;2.00;;
48203;SDS011;33994;50.998;5.864;2023-06-14T16:53:06;7.22;;;1.88;;
48203;SDS011;33994;50.998;5.864;2023-06-14T16:56:09;3.58;;;1.65;;
48203;SDS011;33994;50.998;5.864;2023-06-14T16:59:14;3.75;;;1.85;;
48203;SDS011;33994;50.998;5.864;2023-06-14T17:02:17;8.02;;;2.20;;
48203;SDS011;33994;50.998;5.864;2023-06-14T17:05:20;4.88;;;1.88;;
48203;SDS011;33994;50.998;5.864;2023-06-14T17:08:23;3.63;;;1.98;;
48203;SDS011;33994;50.998;5.864;2023-06-14T17:11:26;4.72;;;2.10;;
48203;SDS011;33994;50.998;5.864;2023-06-14T17:14:31;3.92;;;2.15;;
48203;SDS011;33994;50.998;5.864;2023-06-14T17:17:34;6.85;;;2.00;;
48203;SDS011;33994;50.998;5.864;2023-06-14T17:20:37;2.55;;;2.00;;
48203;SDS011;33994;50.998;5.864;2023-06-14T17:23:40;3.70;;;2.25;;
48203;SDS011;33994;50.998;5.864;2023-06-14T17:26:43;6.75;;;1.95;;
48203;SDS011;33994;50.998;5.864;2023-06-14T17:29:48;6.18;;;2.05;;
48203;SDS011;33994;50.998;5.864;2023-06-14T17:32:52;4.30;;;2.20;;
48203;SDS011;33994;50.998;5.864;2023-06-14T17:35:55;2.28;;;1.90;;
48203;SDS011;33994;50.998;5.864;2023-06-14T17:38:58;4.15;;;1.90;;
48203;SDS011;33994;50.998;5.864;2023-06-14T17:42:02;3.50;;;1.95;;
48203;SDS011;33994;50.998;5.864;2023-06-14T17:45:07;4.57;;;2.13;;
48203;SDS011;33994;50.998;5.864;2023-06-14T17:48:11;3.08;;;1.92;;
48203;SDS011;33994;50.998;5.864;2023-06-14T17:51:14;2.97;;;2.00;;
48203;SDS011;33994;50.998;5.864;2023-06-14T17:54:17;8.95;;;2.50;;
48203;SDS011;33994;50.998;5.864;2023-06-14T17:57:21;6.95;;;2.55;;
48203;SDS011;33994;50.998;5.864;2023-06-14T18:00:25;4.82;;;2.00;;
48203;SDS011;33994;50.998;5.864;2023-06-14T18:03:28;4.85;;;2.10;;
48203;SDS011;33994;50.998;5.864;2023-06-14T18:06:32;4.88;;;2.40;;
48203;SDS011;33994;50.998;5.864;2023-06-14T18:09:35;4.78;;;2.47;;
48203;SDS011;33994;50.998;5.864;2023-06-14T18:12:38;2.47;;;1.95;;
48203;SDS011;33994;50.998;5.864;2023-06-14T18:15:43;4.88;;;2.45;;
48203;SDS011;33994;50.998;5.864;2023-06-14T18:18:46;3.42;;;2.33;;
48203;SDS011;33994;50.998;5.864;2023-06-14T18:21:49;2.92;;;1.92;;
48203;SDS011;33994;50.998;5.864;2023-06-14T18:24:53;2.40;;;2.00;;
48203;SDS011;33994;50.998;5.864;2023-06-14T18:27:56;4.80;;;2.25;;